Terminal Aerodrome Forecast
Issued by NWS Wilmington, OH

Current Version | Previous Version | Text Only | Print | Product List | Glossary Off
Versions: 1 2 3 4 5 6 7 8 9 10 11 12 13 14 15 16 17 18 19 20 21 22 23 24

593
FTUS41 KILN 072343
TAFCVG
TAF
KCVG 072343Z 0800/0906 20008KT P6SM BKN150
     FM080300 21007KT P6SM BKN050 OVC120
     FM080700 25005KT P6SM SCT040 OVC100
     FM081600 27011KT P6SM -SHRA OVC040
     FM081900 28011KT 5SM -SHRA BR OVC025
     FM082200 28010KT P6SM BKN025 OVC040
     FM090400 27009KT P6SM BKN015 OVC025=

USA.gov is the U.S. government's official web portal to all federal, state and local government web resources and services.